Time;durP1;ratioP1;P1;durP2;ratioP2;P2;SDS_P1;SDS_P2;PMS_P1;PMS_P2;Temp;Humidity;BMP_temperature;BMP_pressure;BME280_temperature;BME280_humidity;BME280_pressure;Samples;Min_cycle;Max_cycle;Signal;HPM_P1;HPM_P2
2020/12/13 00:00:16;;;;;;;12.43;4.45;;;;;;;-1.35;68.95;101866.00;1771945;81;21518;-76
2020/12/13 00:02:49;;;;;;;13.85;4.90;;;;;;;-1.32;68.94;101865.97;1772429;81;21141;-77
2020/12/13 00:05:22;;;;;;;11.93;4.70;;;;;;;-1.29;68.83;101870.21;1771898;81;21260;-76
2020/12/13 00:07:55;;;;;;;9.78;3.90;;;;;;;-1.32;68.74;101865.97;1775458;81;21264;-76
2020/12/13 00:10:29;;;;;;;14.05;4.65;;;;;;;-1.33;68.72;101870.67;1777282;80;21845;-75
2020/12/13 00:13:02;;;;;;;9.68;4.45;;;;;;;-1.37;68.70;101883.16;1777417;81;21870;-76
2020/12/13 00:15:35;;;;;;;11.90;4.42;;;;;;;-1.40;68.92;101871.20;1777027;81;21264;-75
2020/12/13 00:18:07;;;;;;;15.30;4.87;;;;;;;-1.38;69.05;101878.45;1777891;80;21299;-75
2020/12/13 00:20:40;;;;;;;12.10;4.40;;;;;;;-1.36;69.01;101875.84;1777497;81;21809;-77
2020/12/13 00:23:15;;;;;;;12.78;4.90;;;;;;;-1.36;69.03;101874.13;1777803;81;21153;-77
2020/12/13 00:25:48;;;;;;;12.40;4.58;;;;;;;-1.36;69.00;101861.72;1772969;81;21271;-76
2020/12/13 00:28:21;;;;;;;12.60;3.77;;;;;;;-1.39;69.12;101865.64;1770277;80;21146;-76
2020/12/13 00:30:54;;;;;;;11.05;5.22;;;;;;;-1.41;69.23;101872.52;1779767;80;21296;-76
2020/12/13 00:33:27;;;;;;;12.47;4.90;;;;;;;-1.42;69.30;101872.95;1779767;80;21214;-75
2020/12/13 00:36:00;;;;;;;13.98;4.67;;;;;;;-1.38;69.45;101877.59;1778520;80;21138;-76
2020/12/13 00:38:33;;;;;;;9.18;4.40;;;;;;;-1.40;69.42;101871.63;1773537;81;21186;-76
2020/12/13 00:41:06;;;;;;;8.70;4.35;;;;;;;-1.47;69.56;101890.14;1775459;81;21283;-76
2020/12/13 00:43:38;;;;;;;18.85;5.10;;;;;;;-1.47;69.74;101893.14;1777206;81;21210;-75
2020/12/13 00:46:11;;;;;;;14.35;4.53;;;;;;;-1.48;69.92;101878.16;1776846;81;21834;-75
2020/12/13 00:48:44;;;;;;;14.97;5.63;;;;;;;-1.47;70.08;101872.59;1777270;81;21135;-77
2020/12/13 00:51:26;;;;;;;14.15;5.40;;;;;;;-1.44;70.08;101873.84;1776062;80;21791;-76
2020/12/13 00:53:59;;;;;;;11.48;4.95;;;;;;;-1.44;70.14;101881.55;1777362;81;21764;-76
2020/12/13 00:56:32;;;;;;;10.80;4.67;;;;;;;-1.44;70.23;101873.84;1777422;81;21800;-77
2020/12/13 00:59:05;;;;;;;13.68;4.53;;;;;;;-1.49;70.35;101870.06;1775870;80;21819;-76
2020/12/13 01:01:38;;;;;;;12.25;5.12;;;;;;;-1.49;70.35;101870.06;1766148;81;21296;-77
2020/12/13 01:04:11;;;;;;;10.00;4.97;;;;;;;-1.47;70.45;101873.45;1767378;81;21302;-76
2020/12/13 01:06:44;;;;;;;14.18;4.72;;;;;;;-1.49;70.59;101875.20;1766936;81;21147;-77
2020/12/13 01:09:17;;;;;;;11.33;4.67;;;;;;;-1.47;70.69;101875.16;1766537;80;21790;-77
2020/12/13 01:11:50;;;;;;;16.20;4.53;;;;;;;-1.46;70.75;101860.17;1766656;81;21135;-77
2020/12/13 01:14:24;;;;;;;11.57;4.87;;;;;;;-1.50;70.78;101878.62;1767277;81;21254;-76
2020/12/13 01:16:58;;;;;;;16.97;5.70;;;;;;;-1.58;71.06;101887.31;1766970;81;21183;-75
2020/12/13 01:19:33;;;;;;;17.07;4.87;;;;;;;-1.61;71.41;101871.94;1766520;81;21791;-75
2020/12/13 01:22:06;;;;;;;13.20;5.40;;;;;;;-1.62;71.67;101874.08;1766865;81;21341;-75
2020/12/13 01:24:39;;;;;;;15.28;5.65;;;;;;;-1.63;71.81;101868.55;1767349;81;21612;-75
2020/12/13 01:27:12;;;;;;;19.57;6.12;;;;;;;-1.63;71.86;101869.39;1770652;81;21244;-75
2020/12/13 01:29:46;;;;;;;12.65;5.20;;;;;;;-1.61;71.94;101869.36;1759235;81;21198;-74
2020/12/13 01:32:19;;;;;;;12.20;4.65;;;;;;;-1.62;72.09;101872.78;1771613;81;21380;-76
2020/12/13 01:34:52;;;;;;;14.90;5.70;;;;;;;-1.64;72.22;101876.67;1771425;81;21244;-75
2020/12/13 01:37:24;;;;;;;14.95;5.72;;;;;;;-1.61;72.39;101869.36;1772638;81;21251;-75
2020/12/13 01:39:58;;;;;;;12.47;5.28;;;;;;;-1.62;72.53;101873.64;1772294;81;21834;-76
2020/12/13 01:42:39;;;;;;;14.47;5.90;;;;;;;-1.62;72.67;101863.80;1771699;81;21261;-75
2020/12/13 01:45:20;;;;;;;14.87;5.42;;;;;;;-1.61;72.73;101866.80;1759143;81;21142;-76
2020/12/13 01:47:50;;;;;;;10.10;5.10;;;;;;;-1.62;72.66;101865.08;1772320;81;21273;-75
2020/12/13 01:50:41;;;;;;;14.00;5.40;;;;;;;-1.61;72.69;101874.08;1772067;81;21253;-76
2020/12/13 01:53:16;;;;;;;18.70;5.70;;;;;;;-1.60;72.65;101877.50;1770387;80;21775;-75
2020/12/13 01:55:49;;;;;;;11.70;4.97;;;;;;;-1.61;72.70;101871.50;1770788;81;21813;-76
2020/12/13 01:58:28;;;;;;;16.82;5.25;;;;;;;-1.58;72.67;101868.91;1771628;81;21170;-76
2020/12/13 02:01:03;;;;;;;9.40;4.85;;;;;;;-1.58;72.68;101875.33;1774683;79;21216;-76
2020/12/13 02:03:54;;;;;;;12.90;5.30;;;;;;;-1.60;72.68;101877.03;1775262;81;21150;-76
2020/12/13 02:06:29;;;;;;;14.60;5.67;;;;;;;-1.62;72.72;101883.06;1768971;80;21818;-76
2020/12/13 02:09:02;;;;;;;11.20;5.55;;;;;;;-1.70;72.83;101871.63;1769900;81;21241;-76
2020/12/13 02:11:35;;;;;;;16.52;5.60;;;;;;;-1.76;73.00;101870.41;1769483;81;21786;-78
2020/12/13 02:14:08;;;;;;;13.18;5.30;;;;;;;-1.79;73.17;101887.13;1771895;81;21275;-78
2020/12/13 02:16:45;;;;;;;14.40;5.50;;;;;;;-1.81;73.32;101871.33;1758180;80;21145;-76
2020/12/13 02:19:19;;;;;;;20.48;5.87;;;;;;;-1.81;73.44;101890.58;1774643;81;21296;-76
2020/12/13 02:21:53;;;;;;;10.93;5.50;;;;;;;-1.82;73.45;101879.91;1769435;81;21280;-76
2020/12/13 02:24:26;;;;;;;15.13;6.37;;;;;;;-1.88;73.50;101888.95;1769363;81;21249;-75
2020/12/13 02:26:59;;;;;;;18.42;5.95;;;;;;;-1.91;73.66;101877.47;1772154;81;21700;-75
2020/12/13 02:29:32;;;;;;;20.08;6.45;;;;;;;-1.88;73.71;101885.96;1775080;81;21266;-75
2020/12/13 02:32:05;;;;;;;12.60;4.97;;;;;;;-1.85;73.59;101867.11;1774522;79;21147;-75
2020/12/13 02:34:38;;;;;;;16.02;5.55;;;;;;;-1.82;73.53;101880.77;1774521;81;21700;-76
2020/12/13 02:37:12;;;;;;;13.25;5.90;;;;;;;-1.79;73.28;101878.14;1774248;81;21258;-76
2020/12/13 02:39:45;;;;;;;20.20;6.47;;;;;;;-1.83;73.18;101882.91;1773932;81;21807;-76
2020/12/13 02:42:18;;;;;;;18.57;6.62;;;;;;;-1.89;73.21;101868.88;1774555;80;21171;-76
2020/12/13 02:44:51;;;;;;;13.40;5.62;;;;;;;-1.91;73.28;101865.91;1774716;81;21819;-76
2020/12/13 02:47:24;;;;;;;15.48;6.10;;;;;;;-1.91;73.40;101859.50;1774845;81;21257;-75
2020/12/13 02:49:57;;;;;;;13.03;5.60;;;;;;;-1.94;73.41;101855.25;1774024;81;21288;-75
2020/12/13 02:52:30;;;;;;;17.30;5.75;;;;;;;-1.92;73.41;101867.63;1774717;81;21336;-76
2020/12/13 02:55:03;;;;;;;15.75;6.00;;;;;;;-1.94;73.36;101852.69;1774793;81;21158;-75
2020/12/13 02:57:36;;;;;;;11.45;5.20;;;;;;;-1.94;73.36;101853.97;1774505;81;21230;-75
2020/12/13 03:00:10;;;;;;;18.57;6.00;;;;;;;-1.94;73.30;101856.96;1773881;81;21898;-75
2020/12/13 03:02:43;;;;;;;12.55;4.78;;;;;;;-1.96;73.23;101871.11;1775121;81;21234;-76
2020/12/13 03:05:16;;;;;;;12.33;4.47;;;;;;;-1.99;73.18;101860.87;1777503;81;21308;-75
2020/12/13 03:07:49;;;;;;;11.65;4.85;;;;;;;-2.02;73.34;101876.30;1777102;81;21897;-75
2020/12/13 03:10:22;;;;;;;13.08;5.50;;;;;;;-2.02;73.40;101863.46;1768270;81;21250;-75
2020/12/13 03:12:56;;;;;;;13.50;5.50;;;;;;;-2.03;73.45;101868.20;1766208;81;21266;-75
2020/12/13 03:15:30;;;;;;;;;;;;;;;-2.03;73.50;101864.34;1770303;81;21293;-75
2020/12/13 03:18:02;;;;;;;13.60;5.30;;;;;;;-2.05;73.60;101870.76;1768316;81;20259;-75
2020/12/13 03:20:35;;;;;;;13.43;5.25;;;;;;;-2.07;73.72;101873.78;1770931;81;21159;-76
2020/12/13 03:23:08;;;;;;;15.35;5.42;;;;;;;-2.08;73.78;101873.35;1771102;81;21155;-75
2020/12/13 03:25:43;;;;;;;15.95;4.65;;;;;;;-2.10;73.90;101872.95;1771930;81;21605;-75
2020/12/13 03:28:15;;;;;;;16.25;5.60;;;;;;;-2.11;73.98;101869.98;1775816;81;21247;-76
2020/12/13 03:30:48;;;;;;;14.18;5.53;;;;;;;-2.11;73.98;101877.27;1775795;79;21237;-76
2020/12/13 03:33:21;;;;;;;11.13;5.20;;;;;;;-2.12;74.11;101880.68;1775407;79;21253;-75
2020/12/13 03:35:54;;;;;;;13.62;5.67;;;;;;;-2.15;73.96;101875.58;1774886;79;21435;-74
2020/12/13 03:38:27;;;;;;;14.68;5.72;;;;;;;-2.16;74.06;101878.17;1724758;82;21394;-76
2020/12/13 03:41:00;;;;;;;14.70;5.75;;;;;;;-2.15;73.94;101882.45;1747980;82;21252;-75
2020/12/13 03:43:33;;;;;;;15.35;5.37;;;;;;;-2.17;73.89;101872.18;1738017;82;21268;-74
2020/12/13 03:46:06;;;;;;;9.50;4.17;;;;;;;-2.16;73.74;101868.77;1734746;83;21205;-74
2020/12/13 03:48:41;;;;;;;13.62;5.35;;;;;;;-2.17;73.66;101873.46;1738275;82;21694;-74
2020/12/13 03:51:14;;;;;;;13.50;6.03;;;;;;;-2.21;73.41;101865.39;1737816;82;21151;-75
2020/12/13 03:53:49;;;;;;;13.50;6.05;;;;;;;-2.21;73.41;101865.39;1737573;82;21256;-75
2020/12/13 03:56:21;;;;;;;12.47;5.50;;;;;;;-2.23;73.45;101861.14;1737245;82;21138;-76
2020/12/13 03:58:55;;;;;;;20.02;5.35;;;;;;;-2.24;73.38;101883.38;1737002;81;21148;-76
2020/12/13 04:01:28;;;;;;;18.23;5.55;;;;;;;-2.27;73.42;101857.75;1736936;82;21165;-75
2020/12/13 04:04:01;;;;;;;14.53;5.37;;;;;;;-2.26;73.32;101866.30;1737484;82;21259;-75
2020/12/13 04:06:34;;;;;;;14.75;5.28;;;;;;;-2.26;73.32;101866.30;1737222;82;21685;-76
2020/12/13 04:09:07;;;;;;;12.70;4.95;;;;;;;-2.28;73.42;101866.33;1737012;82;21121;-76
2020/12/13 04:11:41;;;;;;;17.42;5.95;;;;;;;-2.26;73.44;101881.69;1737918;82;21269;-76
2020/12/13 04:14:14;;;;;;;14.55;5.40;;;;;;;-2.28;73.40;101871.45;1737374;82;21809;-76
2020/12/13 04:16:47;;;;;;;;;;;;;;;-2.32;73.49;101889.47;1739864;82;21255;-76
2020/12/13 04:19:20;;;;;;;13.30;5.22;;;;;;;-2.34;73.56;101878.38;1737116;82;20224;-76
2020/12/13 04:21:53;;;;;;;14.83;5.58;;;;;;;-2.38;73.76;101858.73;1736980;82;21804;-76
2020/12/13 04:24:26;;;;;;;14.93;6.17;;;;;;;-2.37;73.88;101870.28;1737686;82;21785;-75
2020/12/13 04:26:59;;;;;;;12.00;4.90;;;;;;;-2.38;73.83;101892.93;1714396;83;21147;-76
2020/12/13 04:29:32;;;;;;;10.75;5.37;;;;;;;-2.41;73.88;101872.89;1768556;81;21301;-75
2020/12/13 04:35:09;;;;;;;11.65;5.35;;;;;;;-2.45;74.08;101904.11;1794740;80;21216;-76
2020/12/13 04:37:42;;;;;;;16.35;6.80;;;;;;;-2.45;74.14;101878.47;1805117;79;21184;-76
2020/12/13 04:40:15;;;;;;;14.07;6.17;;;;;;;-2.45;74.23;101878.89;1798543;80;21182;-75
2020/12/13 04:42:50;;;;;;;16.37;6.75;;;;;;;-2.45;74.29;101875.91;1807281;79;21141;-76
2020/12/13 04:45:23;;;;;;;17.82;5.83;;;;;;;-2.43;74.38;101881.01;1777893;80;21168;-76
2020/12/13 04:48:10;;;;;;;20.37;7.62;;;;;;;-2.43;74.39;101883.57;1806798;79;21122;-75
2020/12/13 04:50:42;;;;;;;17.15;7.70;;;;;;;-2.42;74.45;101877.16;1798257;80;21114;-76
2020/12/13 04:53:16;;;;;;;17.80;7.20;;;;;;;-2.38;74.44;101877.54;1807295;79;21273;-76
2020/12/13 04:56:00;;;;;;;18.00;6.85;;;;;;;-2.35;74.33;101887.78;1797294;80;21133;-76
2020/12/13 04:58:32;;;;;;;27.93;7.25;;;;;;;-2.35;74.15;101886.92;1806352;79;21117;-76
2020/12/13 05:01:05;;;;;;;15.88;6.62;;;;;;;-2.39;74.10;101902.76;1797277;80;21153;-77
2020/12/13 05:03:38;;;;;;;21.60;8.05;;;;;;;-2.43;74.12;101886.98;1806987;79;21188;-76
2020/12/13 05:06:11;;;;;;;15.85;5.80;;;;;;;-2.44;74.13;101886.59;1796110;80;21122;-76
2020/12/13 05:08:47;;;;;;;19.60;7.00;;;;;;;-2.44;74.11;101891.72;1776300;79;21754;-77
2020/12/13 05:11:19;;;;;;;18.77;6.40;;;;;;;-2.43;74.16;101884.85;1795476;80;21252;-76
2020/12/13 05:13:52;;;;;;;14.47;6.60;;;;;;;-2.43;74.12;101901.09;1805279;79;21236;-77
2020/12/13 05:16:25;;;;;;;18.52;7.85;;;;;;;-2.45;74.07;101895.56;1796550;80;21157;-75
2020/12/13 05:18:58;;;;;;;14.47;6.03;;;;;;;-2.46;74.17;101897.27;1804732;79;21782;-76
2020/12/13 05:21:31;;;;;;;12.28;6.22;;;;;;;-2.46;74.13;101899.84;1795844;80;21240;-77
2020/12/13 05:24:07;;;;;;;19.33;8.10;;;;;;;-2.48;74.12;101911.83;1776243;79;22497;-76
2020/12/13 05:26:40;;;;;;;20.05;7.70;;;;;;;-2.50;74.23;101899.45;1781645;80;21237;-76
2020/12/13 05:29:15;;;;;;;12.67;5.87;;;;;;;-2.51;74.34;101913.58;1787070;80;21249;-78
2020/12/13 05:31:48;;;;;;;18.30;6.87;;;;;;;-2.47;74.40;101913.54;1758561;81;21268;-76
2020/12/13 05:34:21;;;;;;;14.03;6.90;;;;;;;-2.46;74.43;101916.50;1786931;79;21890;-76
2020/12/13 05:36:54;;;;;;;14.55;6.35;;;;;;;-2.44;74.44;101917.37;1767417;80;21284;-76
2020/12/13 05:39:27;;;;;;;13.68;5.92;;;;;;;-2.43;74.53;101906.22;1792338;80;21296;-76
2020/12/13 05:42:00;;;;;;;16.95;6.30;;;;;;;-2.40;74.52;101905.34;1767455;81;21759;-76
2020/12/13 05:52:48;;;;;;;14.98;6.90;;;;;;;-2.28;74.25;101903.95;1767054;81;21327;-76
2020/12/13 05:55:21;;;;;;;15.13;6.20;;;;;;;-2.30;74.20;101910.39;1779292;79;21307;-76
2020/12/13 05:57:54;;;;;;;11.50;5.60;;;;;;;-2.29;74.09;101897.11;1767810;81;21260;-76
2020/12/13 06:00:27;;;;;;;19.17;7.37;;;;;;;-2.32;74.07;101922.81;1792821;79;21275;-77
2020/12/13 06:03:00;;;;;;;22.37;5.83;;;;;;;-2.37;74.04;101898.91;1750536;81;21783;-76
2020/12/13 06:05:37;;;;;;;14.93;6.22;;;;;;;-2.41;74.13;101922.91;1756779;81;21857;-76
2020/12/13 06:08:13;;;;;;;17.52;7.05;;;;;;;-2.42;74.26;101922.05;1787258;80;21710;-76
2020/12/13 06:10:47;;;;;;;18.73;7.42;;;;;;;-2.41;74.18;101911.36;1789410;80;21276;-76
2020/12/13 06:13:19;;;;;;;17.48;7.22;;;;;;;-2.46;74.17;101910.55;1765398;81;21790;-76
2020/12/13 06:15:52;;;;;;;19.87;6.70;;;;;;;-2.45;74.31;101914.37;1791645;79;21679;-76
2020/12/13 06:18:25;;;;;;;16.85;7.12;;;;;;;-2.44;74.27;101908.39;1757304;81;21838;-77
2020/12/13 06:20:58;;;;;;;19.70;7.05;;;;;;;-2.43;74.26;101901.52;1792573;80;21182;-77
2020/12/13 06:23:31;;;;;;;24.10;10.47;;;;;;;-2.42;74.30;101900.25;1768119;81;21224;-77
2020/12/13 06:26:05;;;;;;;55.63;21.20;;;;;;;-2.40;74.29;101935.70;1788016;80;21275;-76
2020/12/13 06:28:38;;;;;;;29.42;12.15;;;;;;;-2.42;74.28;101921.19;1774107;81;21814;-77
2020/12/13 06:31:13;;;;;;;33.03;14.67;;;;;;;-2.44;74.39;101907.11;1805651;79;21833;-76
2020/12/13 06:33:48;;;;;;;21.65;8.63;;;;;;;-2.48;74.47;101918.66;1731690;81;21241;-75
2020/12/13 06:36:24;;;;;;;19.75;7.03;;;;;;;-2.45;74.54;101921.20;1803599;79;21161;-77
2020/12/13 06:38:58;;;;;;;20.70;8.18;;;;;;;-2.44;74.26;101923.78;1761859;81;21181;-75
2020/12/13 06:41:31;;;;;;;14.60;6.95;;;;;;;-2.47;74.13;101921.23;1762966;81;21150;-76
2020/12/13 06:44:06;;;;;;;20.05;6.95;;;;;;;-2.49;74.10;101918.27;1758674;81;21281;-75
2020/12/13 06:46:42;;;;;;;14.47;6.65;;;;;;;-2.50;74.12;101920.39;1788958;80;21779;-76
2020/12/13 06:49:19;;;;;;;15.13;6.00;;;;;;;-2.45;74.10;101931.47;1757022;81;21810;-77
2020/12/13 06:51:54;;;;;;;17.55;7.17;;;;;;;-2.42;73.94;101924.61;1736989;81;21279;-75
2020/12/13 06:54:27;;;;;;;16.10;6.72;;;;;;;-2.42;73.96;101934.87;1758344;81;21162;-76
2020/12/13 06:57:00;;;;;;;15.90;7.17;;;;;;;-2.44;73.86;101939.59;1757840;81;21193;-76
2020/12/13 06:59:33;;;;;;;17.10;6.65;;;;;;;-2.46;73.80;101933.17;1713277;81;21252;-76
2020/12/13 07:02:06;;;;;;;15.73;6.60;;;;;;;-2.44;73.90;101928.05;1714645;81;21308;-76
2020/12/13 07:04:47;;;;;;;13.83;5.95;;;;;;;-2.37;73.85;101920.29;1758700;81;21157;-76
2020/12/13 07:07:26;;;;;;;14.53;6.53;;;;;;;-2.32;73.53;101950.59;1766881;80;22096;-76
2020/12/13 07:10:00;;;;;;;14.93;6.28;;;;;;;-2.33;73.41;101924.94;1763499;81;21285;-75
2020/12/13 07:12:33;;;;;;;;;;;;;;;-2.34;73.37;101947.17;1765671;80;21428;-76
2020/12/13 07:15:22;;;;;;;20.02;6.97;;;;;;;-2.34;73.22;101932.23;1762402;81;20212;-76
2020/12/13 07:17:50;;;;;;;18.35;6.05;;;;;;;-2.39;73.19;101937.84;1760413;80;21194;-76
2020/12/13 07:20:23;;;;;;;16.85;6.60;;;;;;;-2.42;73.25;101939.14;1762742;80;21282;-77
2020/12/13 07:23:00;;;;;;;13.68;6.22;;;;;;;-2.42;73.33;101937.86;1761922;80;21296;-76
2020/12/13 07:25:33;;;;;;;16.87;6.75;;;;;;;-2.39;73.36;101939.94;1761799;80;21292;-77
2020/12/13 07:28:07;;;;;;;12.63;5.87;;;;;;;-2.31;73.38;101941.16;1732029;81;21924;-76
2020/12/13 07:30:41;;;;;;;16.12;7.45;;;;;;;-2.25;73.15;101949.67;1729096;82;21331;-75
2020/12/13 07:33:18;;;;;;;18.85;7.50;;;;;;;-2.28;73.06;101949.70;1761076;80;21152;-75
2020/12/13 07:35:51;;;;;;;16.80;7.58;;;;;;;-2.27;73.02;101936.45;1735517;82;21288;-75
2020/12/13 07:38:24;;;;;;;20.65;7.65;;;;;;;-2.25;73.04;101942.41;1761294;81;21785;-76
2020/12/13 07:40:58;;;;;;;17.70;7.65;;;;;;;-2.21;73.06;101959.03;1716480;83;21689;-75
2020/12/13 07:43:33;;;;;;;22.37;7.70;;;;;;;-2.20;73.00;101956.86;1734551;82;21162;-74
2020/12/13 07:46:19;;;;;;;17.15;7.50;;;;;;;-2.27;73.01;101948.81;1717061;82;21844;-75
2020/12/13 07:49:14;;;;;;;18.55;7.37;;;;;;;-2.37;73.37;101940.80;1735301;82;21798;-77
2020/12/13 07:51:48;;;;;;;19.25;7.53;;;;;;;-2.38;73.65;101933.97;1715866;82;21717;-76
2020/12/13 07:54:28;;;;;;;24.52;8.20;;;;;;;-2.34;73.90;101928.39;1735843;82;21165;-76
2020/12/13 07:57:16;;;;;;;19.37;8.45;;;;;;;-2.28;74.07;101927.03;1716266;83;21872;-75
2020/12/13 07:59:53;;;;;;;26.62;9.68;;;;;;;-2.15;74.05;101931.19;1734440;82;21324;-75
2020/12/13 08:02:28;;;;;;;19.73;8.53;;;;;;;-2.05;73.90;101938.77;1716665;83;21536;-74
2020/12/13 08:05:01;;;;;;;21.82;9.63;;;;;;;-2.00;73.56;101927.16;1735120;82;21342;-76
2020/12/13 08:07:34;;;;;;;20.75;7.50;;;;;;;-1.96;72.97;101935.70;1716564;83;21216;-76
2020/12/13 08:10:07;;;;;;;13.65;6.35;;;;;;;-2.02;72.79;101940.45;1734963;82;21142;-75
2020/12/13 08:12:40;;;;;;;;;;;;;;;-2.05;72.92;101954.16;1717975;82;21828;-76
2020/12/13 08:15:16;;;;;;;14.07;6.28;;;;;;;-2.09;73.03;101947.80;1735374;83;20158;-76
2020/12/13 08:18:08;;;;;;;17.75;7.28;;;;;;;-2.19;73.17;101947.03;1701122;83;21255;-75
2020/12/13 08:20:47;;;;;;;20.68;6.97;;;;;;;-2.20;73.46;101936.34;1732685;82;21197;-75
2020/12/13 08:23:21;;;;;;;16.12;6.65;;;;;;;-2.16;73.60;101923.92;1716177;83;21357;-75
2020/12/13 08:25:54;;;;;;;18.25;7.70;;;;;;;-2.09;73.78;101927.27;1737099;81;21316;-76
2020/12/13 08:28:27;;;;;;;21.23;9.83;;;;;;;-2.03;73.80;101917.38;1739673;82;21394;-75
2020/12/13 08:31:01;;;;;;;20.68;7.78;;;;;;;-1.97;73.67;101917.30;1771448;81;21802;-75
2020/12/13 08:33:34;;;;;;;16.90;6.50;;;;;;;-1.97;73.55;101938.69;1742467;81;21248;-75
2020/12/13 08:36:21;;;;;;;15.23;7.25;;;;;;;-2.01;73.41;101910.51;1772252;81;21256;-76
2020/12/13 08:39:06;;;;;;;20.15;7.28;;;;;;;-2.07;73.40;101893.45;1771447;81;21162;-77
2020/12/13 08:41:47;;;;;;;19.82;7.75;;;;;;;-2.12;73.51;101906.77;1803288;79;21193;-75
2020/12/13 08:44:37;;;;;;;18.60;7.33;;;;;;;-2.16;73.77;101911.09;1793362;80;21253;-77
2020/12/13 08:47:11;;;;;;;16.62;7.00;;;;;;;-2.17;73.95;101916.22;1796764;80;21276;-77
2020/12/13 08:49:48;;;;;;;20.90;8.63;;;;;;;-2.15;74.13;101907.64;1792839;80;21261;-77
2020/12/13 08:52:27;;;;;;;18.90;7.62;;;;;;;-2.14;74.23;101902.09;1796393;80;21162;-76
2020/12/13 08:55:08;;;;;;;19.23;9.08;;;;;;;-2.09;74.27;101908.88;1793322;80;21303;-76
2020/12/13 08:57:45;;;;;;;19.40;8.08;;;;;;;-2.01;74.21;101903.67;1797355;80;21150;-76
2020/12/13 09:00:18;;;;;;;18.25;8.40;;;;;;;-1.96;73.99;101898.48;1771496;80;21245;-77
2020/12/13 09:02:59;;;;;;;21.55;9.45;;;;;;;-1.92;73.87;101919.38;1796405;80;21787;-76
2020/12/13 09:05:39;;;;;;;19.07;7.87;;;;;;;-1.89;73.69;101902.67;1785452;80;21193;-76
2020/12/13 09:08:08;;;;;;;22.05;9.50;;;;;;;-1.89;73.58;101895.83;1791715;80;21285;-77
2020/12/13 09:10:42;;;;;;;;;;;;;;;-1.90;73.37;101877.44;1793852;80;21680;-76
2020/12/13 09:13:15;;;;;;;21.80;8.88;;;;;;;-1.94;73.39;101901.88;1796179;80;20308;-75
2020/12/13 09:15:48;;;;;;;23.12;7.35;;;;;;;-1.94;73.42;101877.49;1793368;80;21257;-75
2020/12/13 09:18:21;;;;;;;19.15;7.20;;;;;;;-1.95;73.42;101894.60;1797531;80;21785;-76
2020/12/13 09:20:58;;;;;;;19.10;8.28;;;;;;;-1.97;73.57;101889.92;1793063;80;21130;-76
2020/12/13 09:23:31;;;;;;;15.88;7.72;;;;;;;-1.98;73.76;101888.67;1795966;80;21253;-76
2020/12/13 09:26:04;;;;;;;19.02;7.78;;;;;;;-2.00;73.83;101887.39;1772222;81;21225;-75
2020/12/13 09:28:37;;;;;;;18.42;8.15;;;;;;;-1.99;73.92;101880.12;1766056;81;21147;-75
2020/12/13 09:31:10;;;;;;;25.30;8.33;;;;;;;-1.97;73.89;101912.17;1768156;80;21284;-75
2020/12/13 09:33:44;;;;;;;21.62;8.83;;;;;;;-1.99;73.83;101862.58;1783938;80;21301;-76
2020/12/13 09:36:17;;;;;;;17.30;7.72;;;;;;;-2.01;74.06;101864.31;1786498;80;21233;-76
2020/12/13 09:38:50;;;;;;;19.92;7.92;;;;;;;-1.97;74.11;101860.41;1765528;80;21205;-77
2020/12/13 09:41:23;;;;;;;21.33;7.50;;;;;;;-1.93;73.78;101862.06;1782735;80;21213;-77
2020/12/13 09:43:56;;;;;;;16.57;7.53;;;;;;;-1.93;73.93;101845.38;1761320;80;21248;-76
2020/12/13 09:46:29;;;;;;;19.65;8.60;;;;;;;-1.83;73.78;101854.67;1783153;80;21185;-77
2020/12/13 09:49:02;;;;;;;17.43;8.10;;;;;;;-1.78;73.53;101855.47;1784947;80;21445;-76
2020/12/13 09:51:34;;;;;;;19.48;8.20;;;;;;;-1.71;73.41;101848.09;1785900;80;21296;-76
2020/12/13 09:54:07;;;;;;;24.02;8.10;;;;;;;-1.68;73.12;101856.19;1787416;80;21253;-76
2020/12/13 09:56:41;;;;;;;18.35;8.23;;;;;;;-1.68;73.10;101851.91;1786746;80;21248;-74
2020/12/13 09:59:15;;;;;;;20.68;9.15;;;;;;;-1.66;73.12;101843.75;1785258;79;21585;-72
2020/12/13 10:01:48;;;;;;;20.55;8.45;;;;;;;-1.64;73.13;101842.01;1789771;79;21245;-73
2020/12/13 10:04:22;;;;;;;17.92;7.08;;;;;;;-1.54;73.10;101841.02;1785803;80;21197;-72
2020/12/13 10:09:31;;;;;;;18.32;8.85;;;;;;;-1.47;72.80;101828.50;1786634;79;21201;-73
2020/12/13 10:12:04;;;;;;;18.13;6.93;;;;;;;-1.52;72.73;101823.86;1790702;80;21355;-73
2020/12/13 10:14:37;;;;;;;19.35;7.80;;;;;;;-1.58;72.85;101821.40;1790815;80;21270;-73
2020/12/13 10:17:11;;;;;;;16.07;8.30;;;;;;;-1.61;73.05;101803.88;1790178;80;21245;-72
2020/12/13 10:19:44;;;;;;;18.20;7.83;;;;;;;-1.61;73.29;101802.17;1789907;80;21185;-71
2020/12/13 10:22:17;;;;;;;18.93;8.93;;;;;;;-1.55;73.39;101817.91;1788213;80;21790;-72
2020/12/13 10:24:50;;;;;;;17.73;7.30;;;;;;;-1.53;73.47;101813.16;1788575;79;21254;-72
2020/12/13 10:27:23;;;;;;;17.37;7.72;;;;;;;-1.52;73.49;101795.61;1799220;79;21695;-72
2020/12/13 10:29:57;;;;;;;21.55;9.55;;;;;;;-1.49;73.53;101799.86;1792866;79;21817;-74
2020/12/13 10:32:31;;;;;;;21.30;10.00;;;;;;;-1.50;73.51;101799.43;1794798;80;21355;-73
2020/12/13 10:35:04;;;;;;;15.15;7.28;;;;;;;-1.51;73.58;101801.17;1792096;80;21793;-72
2020/12/13 10:37:37;;;;;;;18.85;7.33;;;;;;;-1.48;73.29;101819.55;1796158;80;21292;-72
2020/12/13 10:40:11;;;;;;;19.70;7.35;;;;;;;-1.55;73.65;101790.94;1777826;80;21273;-72
2020/12/13 10:42:44;;;;;;;17.50;7.47;;;;;;;-1.56;73.83;101788.84;1796432;80;21169;-72
2020/12/13 10:45:17;;;;;;;22.58;9.00;;;;;;;-1.51;73.93;101803.74;1794799;80;21260;-74
2020/12/13 10:47:54;;;;;;;18.25;8.73;;;;;;;-1.44;73.67;101800.21;1804920;79;21257;-73
2020/12/13 10:50:26;;;;;;;14.20;5.78;;;;;;;-1.40;73.32;101812.55;1795115;80;21153;-73
2020/12/13 10:52:59;;;;;;;17.10;7.62;;;;;;;-1.44;73.05;101810.48;1803157;79;21257;-72
2020/12/13 10:55:32;;;;;;;17.07;8.00;;;;;;;-1.52;72.97;101811.45;1796887;79;21158;-73
2020/12/13 10:58:06;;;;;;;15.78;7.45;;;;;;;-1.57;73.14;101823.50;1804961;79;21872;-72
2020/12/13 11:00:39;;;;;;;20.15;8.10;;;;;;;-1.63;73.30;101821.89;1801266;79;21294;-72
2020/12/13 11:03:12;;;;;;;20.88;7.72;;;;;;;-1.66;73.49;101814.23;1800257;79;21747;-74
2020/12/13 11:05:46;;;;;;;16.75;7.33;;;;;;;-1.68;73.62;101806.98;1800181;79;21598;-73
2020/12/13 11:08:20;;;;;;;18.42;7.97;;;;;;;-1.69;73.78;101807.84;1805569;79;21798;-72
2020/12/13 11:10:53;;;;;;;23.92;9.08;;;;;;;-1.69;73.88;101808.27;1801275;79;21359;-73
2020/12/13 11:13:26;;;;;;;23.73;8.63;;;;;;;-1.68;74.04;101818.97;1804268;79;21409;-73
2020/12/13 11:15:59;;;;;;;15.80;7.10;;;;;;;-1.63;74.08;101811.62;1800707;79;21129;-72
2020/12/13 11:18:34;;;;;;;19.32;7.70;;;;;;;-1.58;73.95;101816.27;1805273;79;21253;-72
2020/12/13 11:21:08;;;;;;;17.87;8.95;;;;;;;-1.58;73.65;101818.83;1800700;79;21340;-73
2020/12/13 11:23:41;;;;;;;32.90;11.43;;;;;;;-1.66;73.66;101813.37;1804291;79;21344;-75
2020/12/13 11:26:14;;;;;;;19.42;9.73;;;;;;;-1.72;73.83;101801.92;1792175;79;21280;-73
2020/12/13 11:28:47;;;;;;;18.33;8.73;;;;;;;-1.76;73.88;101804.09;1763705;80;21296;-72
2020/12/13 11:31:20;;;;;;;20.95;8.80;;;;;;;-1.82;74.08;101819.59;1770055;80;21256;-72
2020/12/13 11:33:54;;;;;;;19.40;8.15;;;;;;;-1.86;74.25;101824.36;1786287;79;21665;-73
2020/12/13 11:36:28;;;;;;;21.73;8.78;;;;;;;-1.87;74.42;101811.09;1761808;81;21173;-72
2020/12/13 11:39:01;;;;;;;18.00;7.80;;;;;;;-1.90;74.47;101817.12;1791299;80;21123;-72
2020/12/13 11:41:36;;;;;;;19.55;7.85;;;;;;;-1.90;74.51;101826.10;1762111;81;21268;-72
2020/12/13 11:44:09;;;;;;;21.65;7.87;;;;;;;-1.89;74.46;101824.39;1787130;79;21249;-73
2020/12/13 11:46:42;;;;;;;16.37;6.85;;;;;;;-1.96;74.52;101808.23;1762636;80;21711;-74
2020/12/13 11:49:15;;;;;;;20.30;7.60;;;;;;;-1.99;74.62;101822.38;1797472;79;21320;-75
2020/12/13 11:51:51;;;;;;;18.10;7.90;;;;;;;-2.00;74.68;101812.11;1766994;81;21352;-76
2020/12/13 11:54:24;;;;;;;19.52;7.62;;;;;;;-2.05;74.89;101807.03;1798338;80;21261;-74
2020/12/13 11:56:58;;;;;;;20.23;9.03;;;;;;;-2.07;75.09;101809.63;1767227;81;21883;-75
2020/12/13 11:59:32;;;;;;;25.20;9.60;;;;;;;-2.06;75.29;101806.64;1775241;80;21260;-74
2020/12/13 12:02:05;;;;;;;16.60;7.03;;;;;;;-2.04;75.39;101819.02;1767396;81;21319;-74
2020/12/13 12:04:38;;;;;;;20.90;8.47;;;;;;;-2.01;75.28;101824.55;1776252;80;21198;-74